createdAt,value
2018-10-06T00:01:27.252Z,101146.92
2018-10-06T00:03:56.415Z,101148.09
2018-10-06T00:06:25.487Z,101143.28
2018-10-06T00:08:54.583Z,101142.32
2018-10-06T00:11:23.688Z,101138.27
2018-10-06T00:13:52.728Z,101130.91
2018-10-06T00:16:21.628Z,101127.71
2018-10-06T00:18:50.500Z,101122.30
2018-10-06T00:21:19.403Z,101124.75
2018-10-06T00:23:48.354Z,101127.45
2018-10-06T00:26:17.317Z,101120.05
2018-10-06T00:28:46.197Z,101123.70
2018-10-06T00:31:15.144Z,101122.41
2018-10-06T00:33:44.140Z,101113.88
2018-10-06T00:36:13.133Z,101111.54
2018-10-06T00:38:42.010Z,101117.78
2018-10-06T00:41:10.908Z,101110.68
2018-10-06T00:43:39.852Z,101106.83
2018-10-06T00:46:08.765Z,101106.23
2018-10-06T00:48:37.813Z,101103.77
2018-10-06T00:51:06.793Z,101099.92
2018-10-06T00:53:35.905Z,101099.06
2018-10-06T00:56:04.802Z,101096.46
2018-10-06T00:58:33.732Z,101095.81
2018-10-06T01:01:02.615Z,101089.91
2018-10-06T01:03:31.504Z,101079.09
2018-10-06T01:06:00.393Z,101083.64
2018-10-06T01:08:29.589Z,101081.48
2018-10-06T01:10:58.496Z,101085.80
2018-10-06T01:13:27.545Z,101083.59
2018-10-06T01:15:56.547Z,101076.89
2018-10-06T01:18:25.504Z,101069.69
2018-10-06T01:20:54.418Z,101070.84
2018-10-06T01:23:23.364Z,101068.13
2018-10-06T01:25:52.283Z,101062.78
2018-10-06T01:28:21.203Z,101058.36
2018-10-06T01:30:50.139Z,101058.23
2018-10-06T01:33:19.121Z,101060.83
2018-10-06T01:35:48.230Z,101058.41
2018-10-06T01:38:17.130Z,101060.83
2018-10-06T01:40:47.028Z,101055.71
2018-10-06T01:43:16.448Z,101052.52
2018-10-06T01:45:45.328Z,101045.81
2018-10-06T01:48:14.224Z,101036.55
2018-10-06T01:50:43.154Z,101036.41
2018-10-06T01:53:12.083Z,101027.94
2018-10-06T01:55:40.986Z,101021.05
2018-10-06T01:58:09.892Z,101023.87
2018-10-06T02:00:38.836Z,101030.64
2018-10-06T02:03:07.738Z,101026.03
2018-10-06T02:05:44.818Z,101027.80
2018-10-06T02:08:13.766Z,101018.69
2018-10-06T02:10:42.654Z,101017.17
2018-10-06T02:13:11.621Z,101021.04
2018-10-06T02:15:40.591Z,101010.13
2018-10-06T02:18:09.482Z,101006.17
2018-10-06T02:20:38.424Z,101004.20
2018-10-06T02:23:07.648Z,100994.03
2018-10-06T02:25:36.618Z,100997.80
2018-10-06T02:28:05.564Z,100989.14
2018-10-06T02:30:34.484Z,100985.23
2018-10-06T02:33:03.475Z,100987.06
2018-10-06T02:35:32.510Z,100984.59
2018-10-06T02:38:01.463Z,100990.34
2018-10-06T02:40:30.372Z,100984.20
2018-10-06T02:42:59.272Z,100979.56
2018-10-06T02:45:28.343Z,100980.55
2018-10-06T02:47:57.261Z,100975.23
2018-10-06T02:50:26.235Z,100982.37
2018-10-06T02:52:55.225Z,100974.61
2018-10-06T02:55:24.122Z,100971.18
2018-10-06T02:57:53.128Z,100968.31
2018-10-06T03:00:22.116Z,100965.62
2018-10-06T03:02:51.073Z,100960.36
2018-10-06T03:05:19.946Z,100953.55
2018-10-06T03:07:48.834Z,100953.83
2018-10-06T03:10:17.758Z,100953.75
2018-10-06T03:12:46.624Z,100949.74
2018-10-06T03:15:15.522Z,100947.95
2018-10-06T03:17:44.423Z,100937.39
2018-10-06T03:20:13.296Z,100940.77
2018-10-06T03:22:42.192Z,100937.55
2018-10-06T03:25:11.168Z,100934.03
2018-10-06T03:27:40.106Z,100933.44
2018-10-06T03:30:09.003Z,100925.02
2018-10-06T03:32:37.966Z,100924.98
2018-10-06T03:35:07.154Z,100930.62
2018-10-06T03:37:36.092Z,100925.44
2018-10-06T03:40:05.032Z,100918.42
2018-10-06T03:42:33.935Z,100925.69
2018-10-06T03:45:02.866Z,100913.34
2018-10-06T03:47:31.764Z,100919.71
2018-10-06T03:50:00.650Z,100925.03
2018-10-06T03:52:29.617Z,100915.91
2018-10-06T03:54:58.540Z,100916.42
2018-10-06T03:57:27.456Z,100914.16
2018-10-06T03:59:56.353Z,100911.94
2018-10-06T04:02:25.287Z,100908.95
2018-10-06T04:04:54.179Z,100910.08
2018-10-06T04:07:23.878Z,100907.95
2018-10-06T04:09:52.795Z,100902.94
2018-10-06T04:12:21.901Z,100892.31
2018-10-06T04:14:50.796Z,100892.31
2018-10-06T04:17:19.790Z,100889.13
2018-10-06T04:19:48.723Z,100877.09
2018-10-06T04:22:17.674Z,100879.52
2018-10-06T04:24:46.677Z,100868.63
2018-10-06T04:27:15.554Z,100866.92
2018-10-06T04:29:44.494Z,100868.73
2018-10-06T04:32:13.452Z,100864.28
2018-10-06T04:34:42.322Z,100864.92
2018-10-06T04:37:11.237Z,100869.38
2018-10-06T04:39:40.139Z,100852.91
2018-10-06T04:42:09.058Z,100850.23
2018-10-06T04:44:38.013Z,100858.20
2018-10-06T04:47:06.891Z,100858.45
2018-10-06T04:49:35.827Z,100853.50
2018-10-06T04:52:04.755Z,100851.70
2018-10-06T04:54:33.630Z,100848.97
2018-10-06T04:57:02.551Z,100843.91
2018-10-06T04:59:31.517Z,100843.71
2018-10-06T05:02:00.401Z,100841.97
2018-10-06T05:04:29.365Z,100831.41
2018-10-06T05:06:58.391Z,100828.36
2018-10-06T05:09:27.447Z,100832.89
2018-10-06T05:11:56.411Z,100829.45
2018-10-06T05:14:25.262Z,100823.42
2018-10-06T05:16:54.127Z,100826.30
2018-10-06T05:19:23.060Z,100811.00
2018-10-06T05:21:52.067Z,100807.97
2018-10-06T05:24:20.963Z,100806.98
2018-10-06T05:26:49.869Z,100808.16
2018-10-06T05:29:18.803Z,100806.05
2018-10-06T05:31:47.701Z,100805.38
2018-10-06T05:34:16.767Z,100809.02
2018-10-06T05:36:45.587Z,100809.59
2018-10-06T05:39:14.480Z,100804.97
2018-10-06T05:41:43.430Z,100803.55
2018-10-06T05:44:12.295Z,100799.81
2018-10-06T05:46:41.304Z,100800.47
2018-10-06T05:49:10.186Z,100798.45
2018-10-06T05:51:39.089Z,100797.37
2018-10-06T05:54:08.075Z,100799.22
2018-10-06T05:56:36.976Z,100790.96
2018-10-06T05:59:07.108Z,100799.59
2018-10-06T06:01:36.011Z,100794.02
2018-10-06T06:04:04.943Z,100799.27
2018-10-06T06:06:33.924Z,100800.05
2018-10-06T06:09:02.827Z,100796.67
2018-10-06T06:11:31.741Z,100795.63
2018-10-06T06:14:01.661Z,100795.89
2018-10-06T06:16:31.604Z,100802.02
2018-10-06T06:19:00.568Z,100815.37
2018-10-06T06:21:29.471Z,100806.46
2018-10-06T06:23:58.445Z,100801.40
2018-10-06T06:26:27.253Z,100804.94
2018-10-06T06:28:56.153Z,100805.52
2018-10-06T06:31:25.163Z,100798.20
2018-10-06T06:33:54.035Z,100801.03
2018-10-06T06:36:22.932Z,100800.14
2018-10-06T06:38:51.855Z,100801.66
2018-10-06T06:41:20.791Z,100810.88
2018-10-06T06:43:49.745Z,100812.30
2018-10-06T06:46:18.684Z,100805.69
2018-10-06T06:48:47.703Z,100802.81
2018-10-06T06:51:16.727Z,100809.83
2018-10-06T06:53:45.616Z,100794.49
2018-10-06T06:56:14.484Z,100798.22
2018-10-06T06:58:43.397Z,100794.95
2018-10-06T07:01:12.356Z,100797.81
2018-10-06T07:03:41.280Z,100798.48
2018-10-06T07:06:10.189Z,100798.48
2018-10-06T07:08:39.109Z,100799.55
2018-10-06T07:11:07.981Z,100792.11
2018-10-06T07:13:36.994Z,100804.02
2018-10-06T07:16:05.928Z,100802.65
2018-10-06T07:18:34.929Z,100797.29
2018-10-06T07:21:09.328Z,100792.38
2018-10-06T07:23:38.328Z,100796.72
2018-10-06T07:26:07.256Z,100795.71
2018-10-06T07:28:36.376Z,100792.27
2018-10-06T07:31:05.268Z,100787.45
2018-10-06T07:33:34.241Z,100790.55
2018-10-06T07:36:03.121Z,100793.49
2018-10-06T07:38:32.028Z,100795.20
2018-10-06T07:41:06.510Z,100785.13
2018-10-06T07:43:40.930Z,100792.11
2018-10-06T07:46:09.925Z,100790.41
2018-10-06T07:48:38.802Z,100790.18
2018-10-06T07:51:09.416Z,100796.44
2018-10-06T07:53:38.891Z,100794.97
2018-10-06T07:56:07.800Z,100799.77
2018-10-06T07:58:36.786Z,100796.26
2018-10-06T08:01:05.785Z,100798.41
2018-10-06T08:03:34.646Z,100805.00
2018-10-06T08:06:03.532Z,100800.99
2018-10-06T08:08:32.500Z,100795.87
2018-10-06T08:11:01.424Z,100798.92
2018-10-06T08:13:30.396Z,100793.52
2018-10-06T08:15:59.355Z,100796.59
2018-10-06T08:18:28.352Z,100795.81
2018-10-06T08:20:57.348Z,100796.08
2018-10-06T08:23:26.229Z,100795.14
2018-10-06T08:25:55.170Z,100789.70
2018-10-06T08:28:30.554Z,100789.03
2018-10-06T08:31:00.122Z,100784.75
2018-10-06T08:33:29.049Z,100785.42
2018-10-06T08:35:58.066Z,100782.90
2018-10-06T08:38:27.044Z,100773.89
2018-10-06T08:40:57.996Z,100777.40
2018-10-06T08:43:27.015Z,100773.39
2018-10-06T08:45:56.354Z,100772.83
2018-10-06T08:48:26.968Z,100770.68
2018-10-06T08:50:57.096Z,100767.81
2018-10-06T08:53:26.724Z,100757.86
2018-10-06T08:55:55.709Z,100758.98
2018-10-06T08:58:24.643Z,100761.05
2018-10-06T09:00:53.707Z,100759.48
2018-10-06T09:03:28.138Z,100762.34
2018-10-06T09:05:57.020Z,100761.39
2018-10-06T09:08:26.023Z,100752.94
2018-10-06T09:10:55.152Z,100750.05
2018-10-06T09:13:24.090Z,100751.11
2018-10-06T09:15:53.184Z,100745.55
2018-10-06T09:18:22.164Z,100744.22
2018-10-06T09:20:51.205Z,100751.98
2018-10-06T09:23:20.226Z,100744.48
2018-10-06T09:25:49.144Z,100739.55
2018-10-06T09:28:18.431Z,100749.17
2018-10-06T09:30:47.478Z,100751.16
2018-10-06T09:33:22.125Z,100753.86
2018-10-06T09:35:56.621Z,100752.73
2018-10-06T09:38:25.828Z,100754.94
2018-10-06T09:40:54.968Z,100753.70
2018-10-06T09:43:24.767Z,100760.01
2018-10-06T09:45:53.728Z,100765.78
2018-10-06T09:48:22.781Z,100768.23
2018-10-06T09:50:51.678Z,100774.00
2018-10-06T09:53:20.679Z,100773.27
2018-10-06T09:55:49.609Z,100767.34
2018-10-06T09:58:18.484Z,100770.09
2018-10-06T10:00:52.720Z,100765.30
2018-10-06T10:03:26.927Z,100764.42
2018-10-06T10:06:02.693Z,100760.75
2018-10-06T10:08:31.672Z,100757.53
2018-10-06T10:11:00.519Z,100762.95
2018-10-06T10:13:29.464Z,100761.13
2018-10-06T10:15:58.355Z,100760.13
2018-10-06T10:18:27.509Z,100753.36
2018-10-06T10:20:56.317Z,100749.69
2018-10-06T10:23:25.228Z,100752.73
2018-10-06T10:25:54.110Z,100755.95
2018-10-06T10:28:23.179Z,100755.09
2018-10-06T10:30:52.038Z,100761.50
2018-10-06T10:33:21.030Z,100751.12
2018-10-06T10:35:50.006Z,100757.66
2018-10-06T10:38:18.978Z,100757.45
2018-10-06T10:40:47.931Z,100755.70
2018-10-06T10:43:16.946Z,100763.59
2018-10-06T10:45:45.985Z,100762.23
2018-10-06T10:48:14.916Z,100759.13
2018-10-06T10:50:44.003Z,100757.52
2018-10-06T10:53:13.602Z,100755.32
2018-10-06T10:55:42.543Z,100751.86
2018-10-06T10:58:13.534Z,100748.03
2018-10-06T11:00:42.475Z,100745.58
2018-10-06T11:03:11.351Z,100747.16
2018-10-06T11:05:40.226Z,100740.59
2018-10-06T11:08:09.159Z,100738.86
2018-10-06T11:10:38.141Z,100746.39
2018-10-06T11:13:07.304Z,100743.16
2018-10-06T11:15:36.195Z,100738.64
2018-10-06T11:18:05.194Z,100743.01
2018-10-06T11:20:34.166Z,100743.89
2018-10-06T11:23:03.178Z,100734.25
2018-10-06T11:25:32.134Z,100732.84
2018-10-06T11:28:01.104Z,100730.13
2018-10-06T11:30:30.059Z,100732.59
2018-10-06T11:32:58.954Z,100728.64
2018-10-06T11:35:27.985Z,100726.09
2018-10-06T11:37:56.888Z,100724.33
2018-10-06T11:40:25.858Z,100720.73
2018-10-06T11:42:54.862Z,100712.56
2018-10-06T11:45:23.818Z,100713.42
2018-10-06T11:47:52.696Z,100713.10
2018-10-06T11:50:21.610Z,100702.81
2018-10-06T11:52:50.430Z,100703.55
2018-10-06T11:55:19.388Z,100695.59
2018-10-06T11:57:48.302Z,100693.20
2018-10-06T12:00:17.407Z,100689.86
2018-10-06T12:02:52.708Z,100679.47
2018-10-06T12:05:21.562Z,100665.81
2018-10-06T12:07:50.592Z,100659.84
2018-10-06T12:10:19.464Z,100665.72
2018-10-06T12:12:48.333Z,100665.09
2018-10-06T12:15:17.299Z,100662.63
2018-10-06T12:17:46.169Z,100666.02
2018-10-06T12:20:16.173Z,100661.52
2018-10-06T12:22:45.039Z,100673.09
2018-10-06T12:25:14.098Z,100664.53
2018-10-06T12:27:43.065Z,100668.26
2018-10-06T12:30:18.715Z,100660.33
2018-10-06T12:32:47.598Z,100671.40
2018-10-06T12:35:16.598Z,100668.26
2018-10-06T12:37:45.400Z,100667.66
2018-10-06T12:40:14.315Z,100664.01
2018-10-06T12:42:43.405Z,100662.20
2018-10-06T12:45:12.324Z,100658.66
2018-10-06T12:47:41.280Z,100655.86
2018-10-06T12:50:10.251Z,100654.48
2018-10-06T12:52:39.168Z,100654.53
2018-10-06T12:55:08.023Z,100660.17
2018-10-06T12:57:36.979Z,100661.19
2018-10-06T13:00:06.418Z,100655.17
2018-10-06T13:02:35.751Z,100657.30
2018-10-06T13:05:04.769Z,100653.57
2018-10-06T13:07:34.780Z,100651.52
2018-10-06T13:10:03.762Z,100656.29
2018-10-06T13:12:32.630Z,100650.46
2018-10-06T13:15:01.651Z,100655.89
2018-10-06T13:17:30.538Z,100650.75
2018-10-06T13:19:59.424Z,100651.88
2018-10-06T13:22:28.418Z,100648.59
2018-10-06T13:24:57.308Z,100648.59
2018-10-06T13:27:26.306Z,100641.22
2018-10-06T13:29:55.214Z,100635.20
2018-10-06T13:32:24.209Z,100638.94
2018-10-06T13:34:53.113Z,100636.75
2018-10-06T13:37:22.174Z,100639.07
2018-10-06T13:39:51.178Z,100646.39
2018-10-06T13:42:20.125Z,100643.88
2018-10-06T13:44:48.986Z,100648.20
2018-10-06T13:47:18.982Z,100650.16
2018-10-06T13:49:47.982Z,100651.52
2018-10-06T13:52:17.651Z,100650.27
2018-10-06T13:54:46.518Z,100654.98
2018-10-06T13:57:15.515Z,100651.67
2018-10-06T13:59:44.490Z,100660.09
2018-10-06T14:02:13.498Z,100667.34
2018-10-06T14:04:42.434Z,100669.41
2018-10-06T14:07:11.426Z,100667.47
2018-10-06T14:09:40.292Z,100671.67
2018-10-06T14:12:09.211Z,100672.44
2018-10-06T14:14:38.212Z,100668.16
2018-10-06T14:18:11.632Z,100668.93
2018-10-06T14:20:40.913Z,100672.16
2018-10-06T14:23:10.073Z,100668.34
2018-10-06T14:25:38.978Z,100665.62
2018-10-06T14:28:07.995Z,100672.47
2018-10-06T14:30:36.970Z,100676.79
2018-10-06T14:33:06.153Z,100678.72
2018-10-06T14:35:35.144Z,100683.56
2018-10-06T14:38:04.255Z,100676.44
2018-10-06T14:40:33.300Z,100681.66
2018-10-06T14:43:02.537Z,100680.72
2018-10-06T14:45:31.529Z,100676.11
2018-10-06T14:48:00.463Z,100680.81
2018-10-06T14:50:30.463Z,100675.47
2018-10-06T14:52:59.435Z,100686.15
2018-10-06T14:55:29.356Z,100683.99
2018-10-06T14:58:00.350Z,100683.02
2018-10-06T15:00:29.304Z,100682.63
2018-10-06T15:02:58.295Z,100683.02
2018-10-06T15:05:27.286Z,100682.89
2018-10-06T15:07:56.508Z,100676.48
2018-10-06T15:10:25.508Z,100673.44
2018-10-06T15:12:55.646Z,100669.83
2018-10-06T15:15:24.624Z,100671.23
2018-10-06T15:17:53.617Z,100680.36
2018-10-06T15:20:22.750Z,100680.65
2018-10-06T15:22:51.786Z,100680.14
2018-10-06T15:25:20.669Z,100673.11
2018-10-06T15:27:49.941Z,100669.33
2018-10-06T15:30:18.883Z,100662.52
2018-10-06T15:32:47.907Z,100668.50
2018-10-06T15:35:16.858Z,100680.74
2018-10-06T15:37:45.871Z,100674.66
2018-10-06T15:40:14.956Z,100676.43
2018-10-06T15:42:44.086Z,100685.92
2018-10-06T15:45:12.913Z,100689.39
2018-10-06T15:47:42.042Z,100686.70
2018-10-06T15:50:11.120Z,100692.66
2018-10-06T15:52:42.176Z,100681.34
2018-10-06T15:55:13.343Z,100681.81
2018-10-06T15:57:43.459Z,100673.78
2018-10-06T16:00:13.457Z,100673.16
2018-10-06T16:02:43.554Z,100680.53
2018-10-06T16:05:12.559Z,100679.93
2018-10-06T16:07:41.545Z,100682.13
2018-10-06T16:10:10.592Z,100687.84
2018-10-06T16:12:39.684Z,100684.65
2018-10-06T16:15:08.660Z,100678.30
2018-10-06T16:17:37.636Z,100684.48
2018-10-06T16:20:06.663Z,100690.03
2018-10-06T16:22:35.673Z,100693.63
2018-10-06T16:25:04.657Z,100695.20
2018-10-06T16:27:35.923Z,100697.94
2018-10-06T16:30:05.987Z,100700.53
2018-10-06T16:32:35.074Z,100702.76
2018-10-06T16:35:04.125Z,100697.57
2018-10-06T16:37:33.239Z,100704.22
2018-10-06T16:40:04.405Z,100705.83
2018-10-06T16:42:33.545Z,100706.95
2018-10-06T16:45:02.657Z,100704.27
2018-10-06T16:47:31.846Z,100715.59
2018-10-06T16:50:00.809Z,100714.08
2018-10-06T16:52:29.841Z,100725.30
2018-10-06T16:54:58.792Z,100723.33
2018-10-06T16:57:28.010Z,100720.27
2018-10-06T16:59:57.049Z,100709.91
2018-10-06T17:02:26.038Z,100717.41
2018-10-06T17:04:57.022Z,100720.61
2018-10-06T17:07:26.118Z,100717.91
2018-10-06T17:09:56.436Z,100728.02
2018-10-06T17:12:25.635Z,100722.84
2018-10-06T17:14:54.720Z,100729.26
2018-10-06T17:17:24.803Z,100722.84
2018-10-06T17:19:54.963Z,100733.94
2018-10-06T17:22:23.879Z,100752.89
2018-10-06T17:24:52.995Z,100760.01
2018-10-06T17:27:22.204Z,100765.42
2018-10-06T17:29:51.248Z,100758.42
2018-10-06T17:32:22.406Z,100762.95
2018-10-06T17:34:51.405Z,100763.84
2018-10-06T17:37:20.384Z,100776.48
2018-10-06T17:39:50.535Z,100773.20
2018-10-06T17:42:19.617Z,100769.60
2018-10-06T17:44:48.856Z,100770.45
2018-10-06T17:47:18.113Z,100767.40
2018-10-06T17:49:47.255Z,100760.36
2018-10-06T17:52:17.320Z,100762.83
2018-10-06T17:54:46.264Z,100767.86
2018-10-06T17:57:15.174Z,100776.85
2018-10-06T17:59:44.915Z,100783.95
2018-10-06T18:02:13.873Z,100799.18
2018-10-06T18:04:42.759Z,100788.34
2018-10-06T18:07:11.668Z,100791.54
2018-10-06T18:09:40.632Z,100801.86
2018-10-06T18:12:15.291Z,100803.94
2018-10-06T18:14:44.514Z,100808.61
2018-10-06T18:17:13.458Z,100805.91
2018-10-06T18:19:42.482Z,100814.27
2018-10-06T18:22:11.620Z,100817.48
2018-10-06T18:24:40.612Z,100814.04
2018-10-06T18:27:09.627Z,100818.45
2018-10-06T18:29:38.661Z,100824.72
2018-10-06T18:32:13.190Z,100820.53
2018-10-06T18:34:47.722Z,100818.16
2018-10-06T18:37:16.774Z,100841.11
2018-10-06T18:39:45.628Z,100843.84
2018-10-06T18:42:14.501Z,100842.38
2018-10-06T18:44:43.394Z,100855.75
2018-10-06T18:47:12.312Z,100858.13
2018-10-06T18:49:41.263Z,100864.22
2018-10-06T18:52:11.164Z,100860.64
2018-10-06T18:54:40.261Z,100865.62
2018-10-06T18:57:09.232Z,100877.32
2018-10-06T18:59:38.143Z,100880.84
2018-10-06T19:02:07.270Z,100895.59
2018-10-06T19:04:36.239Z,100890.76
2018-10-06T19:07:05.175Z,100880.38
2018-10-06T19:09:34.143Z,100891.05
2018-10-06T19:12:03.147Z,100898.77
2018-10-06T19:14:32.287Z,100907.27
2018-10-06T19:17:01.277Z,100904.67
2018-10-06T19:19:30.165Z,100921.81
2018-10-06T19:21:59.270Z,100921.38
2018-10-06T19:24:28.170Z,100915.98
2018-10-06T19:26:59.239Z,100924.19
2018-10-06T19:29:28.139Z,100933.56
2018-10-06T19:31:57.059Z,100937.78
2018-10-06T19:34:26.021Z,100934.08
2018-10-06T19:36:55.003Z,100938.59
2018-10-06T19:39:23.909Z,100926.73
2018-10-06T19:41:52.866Z,100927.94
2018-10-06T19:44:21.874Z,100941.59
2018-10-06T19:46:50.884Z,100932.45
2018-10-06T19:49:19.886Z,100934.16
2018-10-06T19:51:48.815Z,100918.31
2018-10-06T19:54:17.772Z,100932.16
2018-10-06T19:56:47.326Z,100938.56
2018-10-06T19:59:16.214Z,100951.89
2018-10-06T20:01:45.218Z,100969.20
2018-10-06T20:04:14.284Z,100969.03
2018-10-06T20:06:43.243Z,100970.48
2018-10-06T20:09:12.646Z,100974.61
2018-10-06T20:11:41.642Z,100983.16
2018-10-06T20:14:10.538Z,100992.80
2018-10-06T20:16:39.482Z,100995.08
2018-10-06T20:19:10.872Z,100992.87
2018-10-06T20:21:39.835Z,100996.86
2018-10-06T20:24:08.767Z,100992.02
2018-10-06T20:26:37.707Z,101007.22
2018-10-06T20:29:06.806Z,101013.88
2018-10-06T20:31:35.981Z,101014.37
2018-10-06T20:34:04.919Z,101018.25
2018-10-06T20:36:33.827Z,101032.63
2018-10-06T20:39:02.791Z,101027.33
2018-10-06T20:41:31.715Z,101039.50
2018-10-06T20:44:00.675Z,101035.02
2018-10-06T20:46:29.804Z,101040.82
2018-10-06T20:48:58.687Z,101023.23
2018-10-06T20:51:27.678Z,101037.00
2018-10-06T20:53:56.639Z,101042.77
2018-10-06T20:56:26.601Z,101039.89
2018-10-06T20:58:55.915Z,101045.06
2018-10-06T21:01:24.975Z,101051.38
2018-10-06T21:03:55.069Z,101061.75
2018-10-06T21:06:23.987Z,101062.44
2018-10-06T21:08:53.062Z,101081.95
2018-10-06T21:11:22.088Z,101077.01
2018-10-06T21:13:51.079Z,101087.33
2018-10-06T21:16:20.083Z,101080.50
2018-10-06T21:18:49.075Z,101089.85
2018-10-06T21:21:18.077Z,101068.61
2018-10-06T21:23:47.015Z,101069.16
2018-10-06T21:26:16.041Z,101072.34
2018-10-06T21:28:46.950Z,101071.18
2018-10-06T21:31:15.938Z,101080.26
2018-10-06T21:33:44.966Z,101080.45
2018-10-06T21:36:13.855Z,101090.11
2018-10-06T21:38:43.041Z,101102.24
2018-10-06T21:41:12.083Z,101113.70
2018-10-06T21:43:41.159Z,101127.38
2018-10-06T21:46:10.109Z,101123.51
2018-10-06T21:48:39.088Z,101125.34
2018-10-06T21:51:08.296Z,101109.75
2018-10-06T21:53:37.232Z,101101.63
2018-10-06T21:56:06.197Z,101077.77
2018-10-06T21:58:36.137Z,101077.18
2018-10-06T22:01:11.433Z,101094.69
2018-10-06T22:03:40.984Z,101086.28
2018-10-06T22:06:10.023Z,101086.86
2018-10-06T22:08:39.302Z,101119.09
2018-10-06T22:11:08.318Z,101144.94
2018-10-06T22:13:37.289Z,101152.67
2018-10-06T22:16:07.551Z,101169.97
2018-10-06T22:18:36.513Z,101146.73
2018-10-06T22:21:06.728Z,101158.52
2018-10-06T22:23:35.884Z,101169.44
2018-10-06T22:26:05.004Z,101183.06
2018-10-06T22:28:34.998Z,101205.31
2018-10-06T22:31:04.049Z,101204.48
2018-10-06T22:33:32.961Z,101200.74
2018-10-06T22:36:01.905Z,101191.77
2018-10-06T22:38:30.918Z,101192.48
2018-10-06T22:41:00.236Z,101208.78
2018-10-06T22:43:29.192Z,101197.00
2018-10-06T22:45:58.231Z,101213.05
2018-10-06T22:48:27.129Z,101188.98
2018-10-06T22:50:56.173Z,101220.78
2018-10-06T22:53:25.225Z,101220.00
2018-10-06T22:55:54.263Z,101233.52
2018-10-06T22:58:24.306Z,101222.13
2018-10-06T23:00:53.304Z,101235.50
2018-10-06T23:03:22.280Z,101215.95
2018-10-06T23:05:51.366Z,101241.66
2018-10-06T23:08:20.376Z,101245.69
2018-10-06T23:10:49.404Z,101243.97
2018-10-06T23:13:18.565Z,101249.91
2018-10-06T23:15:47.532Z,101256.37
2018-10-06T23:18:16.589Z,101263.20
2018-10-06T23:20:45.704Z,101262.80
2018-10-06T23:23:14.839Z,101286.83
2018-10-06T23:25:43.786Z,101272.83
2018-10-06T23:28:12.803Z,101283.98
2018-10-06T23:30:41.833Z,101291.10
2018-10-06T23:33:11.126Z,101289.78
2018-10-06T23:35:41.088Z,101300.67
2018-10-06T23:38:10.192Z,101306.28
2018-10-06T23:40:39.130Z,101329.38
2018-10-06T23:43:08.109Z,101321.13
2018-10-06T23:45:37.136Z,101338.36
2018-10-06T23:48:06.211Z,101330.22
2018-10-06T23:50:35.201Z,101334.65
2018-10-06T23:53:04.165Z,101344.98
2018-10-06T23:55:35.116Z,101348.13
2018-10-06T23:58:04.109Z,101355.87
